createdAt,value
2018-11-29T00:00:33.342Z,98998.77
2018-11-29T00:03:01.839Z,98992.98
2018-11-29T00:05:46.476Z,98976.39
2018-11-29T00:08:24.801Z,98977.03
2018-11-29T00:10:53.510Z,98980.80
2018-11-29T00:13:21.887Z,98970.78
2018-11-29T00:15:50.235Z,98973.84
2018-11-29T00:18:18.846Z,98972.85
2018-11-29T00:20:47.138Z,98977.20
2018-11-29T00:23:15.552Z,98973.09
2018-11-29T00:25:44.261Z,98970.63
2018-11-29T00:28:13.170Z,98968.36
2018-11-29T00:30:41.721Z,98969.12
2018-11-29T00:33:10.030Z,98969.91
2018-11-29T00:35:38.340Z,98977.33
2018-11-29T00:38:06.653Z,98970.92
2018-11-29T00:40:34.962Z,98974.27
2018-11-29T00:43:06.217Z,98970.99
2018-11-29T00:45:34.948Z,98970.31
2018-11-29T00:48:04.005Z,98971.95
2018-11-29T00:50:32.317Z,98960.91
2018-11-29T00:53:00.707Z,98955.89
2018-11-29T00:55:29.041Z,98968.75
2018-11-29T00:57:57.345Z,98969.95
2018-11-29T01:00:25.670Z,98964.70
2018-11-29T01:02:53.869Z,98970.59
2018-11-29T01:05:22.751Z,98970.39
2018-11-29T01:07:50.998Z,98967.89
2018-11-29T01:10:19.670Z,98966.57
2018-11-29T01:12:48.735Z,98958.39
2018-11-29T01:15:20.094Z,98961.73
2018-11-29T01:17:50.217Z,98957.39
2018-11-29T01:20:20.760Z,98965.42
2018-11-29T01:22:49.082Z,98964.34
2018-11-29T01:25:17.926Z,98967.87
2018-11-29T01:27:48.293Z,98966.59
2018-11-29T01:30:18.393Z,98965.68
2018-11-29T01:32:46.797Z,98975.33
2018-11-29T01:35:16.867Z,98971.49
2018-11-29T01:37:45.292Z,98974.17
2018-11-29T01:40:18.879Z,98970.86
2018-11-29T01:42:51.158Z,98974.30
2018-11-29T01:45:20.083Z,98978.00
2018-11-29T01:47:49.341Z,98977.34
2018-11-29T01:50:17.737Z,98962.16
2018-11-29T01:52:46.371Z,98963.04
2018-11-29T01:55:15.108Z,98957.66
2018-11-29T01:57:43.405Z,98957.19
2018-11-29T02:00:15.177Z,98950.25
2018-11-29T02:02:45.106Z,98952.77
2018-11-29T02:05:13.538Z,98943.65
2018-11-29T02:07:42.451Z,98939.58
2018-11-29T02:10:18.901Z,98940.14
2018-11-29T02:12:47.097Z,98929.54
2018-11-29T02:15:15.502Z,98930.64
2018-11-29T02:17:44.270Z,98930.34
2018-11-29T02:20:15.816Z,98928.31
2018-11-29T02:22:45.146Z,98931.25
2018-11-29T02:25:13.552Z,98931.30
2018-11-29T02:27:42.271Z,98932.58
2018-11-29T02:30:17.548Z,98932.45
2018-11-29T02:32:46.590Z,98919.19
2018-11-29T02:35:14.919Z,98911.41
2018-11-29T02:37:43.455Z,98905.80
2018-11-29T02:40:14.668Z,98907.08
2018-11-29T02:42:43.511Z,98901.70
2018-11-29T02:45:14.760Z,98899.30
2018-11-29T02:47:43.342Z,98900.01
2018-11-29T02:50:12.422Z,98898.70
2018-11-29T02:52:40.705Z,98894.52
2018-11-29T02:55:10.673Z,98899.44
2018-11-29T02:57:39.296Z,98901.02
2018-11-29T03:00:14.068Z,98890.73
2018-11-29T03:02:42.493Z,98881.29
2018-11-29T03:05:10.920Z,98875.35
2018-11-29T03:07:39.766Z,98883.67
2018-11-29T03:10:12.872Z,98880.26
2018-11-29T03:12:41.819Z,98887.83
2018-11-29T03:15:14.909Z,98890.66
2018-11-29T03:17:44.171Z,98894.49
2018-11-29T03:20:13.443Z,98892.53
2018-11-29T03:22:42.162Z,98889.94
2018-11-29T03:25:14.914Z,98887.83
2018-11-29T03:27:43.725Z,98891.66
2018-11-29T03:30:16.787Z,98884.77
2018-11-29T03:32:45.491Z,98883.98
2018-11-29T03:35:14.786Z,98882.70
2018-11-29T03:37:43.089Z,98876.91
2018-11-29T03:40:16.084Z,98885.11
2018-11-29T03:42:44.940Z,98889.42
2018-11-29T03:45:15.362Z,98886.20
2018-11-29T03:47:50.832Z,98887.08
2018-11-29T03:50:19.146Z,98876.72
2018-11-29T03:52:47.439Z,98867.13
2018-11-29T03:55:16.147Z,98860.99
2018-11-29T03:57:44.532Z,98854.70
2018-11-29T04:00:15.460Z,98858.36
2018-11-29T04:02:44.773Z,98861.85
2018-11-29T04:05:13.634Z,98863.05
2018-11-29T04:07:41.972Z,98863.89
2018-11-29T04:10:14.679Z,98872.91
2018-11-29T04:12:43.150Z,98875.13
2018-11-29T04:15:13.091Z,98878.84
2018-11-29T04:17:41.986Z,98867.44
2018-11-29T04:20:13.173Z,98866.23
2018-11-29T04:22:41.521Z,98858.09
2018-11-29T04:25:12.034Z,98863.35
2018-11-29T04:27:40.641Z,98857.31
2018-11-29T04:30:12.223Z,98864.44
2018-11-29T04:32:40.775Z,98851.38
2018-11-29T04:35:10.497Z,98848.91
2018-11-29T04:37:39.784Z,98847.45
2018-11-29T04:40:12.961Z,98844.61
2018-11-29T04:42:41.281Z,98834.50
2018-11-29T04:45:14.837Z,98838.55
2018-11-29T04:47:44.092Z,98834.44
2018-11-29T04:50:12.625Z,98824.53
2018-11-29T04:52:40.983Z,98822.26
2018-11-29T04:55:09.908Z,98821.30
2018-11-29T04:57:38.423Z,98817.62
2018-11-29T05:00:14.242Z,98819.44
2018-11-29T05:02:42.596Z,98821.47
2018-11-29T05:05:12.171Z,98824.45
2018-11-29T05:07:41.094Z,98829.17
2018-11-29T05:10:11.185Z,98825.20
2018-11-29T05:12:40.004Z,98826.41
2018-11-29T05:15:10.302Z,98825.00
2018-11-29T05:17:38.695Z,98827.29
2018-11-29T05:20:07.422Z,98826.02
2018-11-29T05:22:35.738Z,98828.38
2018-11-29T05:25:04.468Z,98827.73
2018-11-29T05:27:33.147Z,98836.37
2018-11-29T05:30:01.488Z,98836.01
2018-11-29T05:32:29.865Z,98840.70
2018-11-29T05:34:58.941Z,98846.39
2018-11-29T05:37:27.389Z,98844.94
2018-11-29T05:39:56.250Z,98839.91
2018-11-29T05:42:24.692Z,98841.72
2018-11-29T05:44:53.427Z,98842.87
2018-11-29T05:47:21.770Z,98835.42
2018-11-29T05:49:50.080Z,98837.22
2018-11-29T05:52:20.144Z,98832.81
2018-11-29T05:54:50.529Z,98839.50
2018-11-29T05:57:18.974Z,98852.34
2018-11-29T05:59:47.561Z,98853.94
2018-11-29T06:02:15.942Z,98844.05
2018-11-29T06:04:44.392Z,98845.33
2018-11-29T06:07:12.945Z,98847.80
2018-11-29T06:09:41.274Z,98845.46
2018-11-29T06:12:12.302Z,98844.45
2018-11-29T06:14:42.294Z,98839.03
2018-11-29T06:17:10.833Z,98831.17
2018-11-29T06:19:39.269Z,98824.02
2018-11-29T06:22:08.066Z,98826.27
2018-11-29T06:24:43.080Z,98822.66
2018-11-29T06:27:11.481Z,98831.58
2018-11-29T06:29:39.809Z,98825.96
2018-11-29T06:32:08.197Z,98826.23
2018-11-29T06:34:36.569Z,98829.59
2018-11-29T06:37:05.081Z,98826.38
2018-11-29T06:39:33.460Z,98824.14
2018-11-29T06:42:01.805Z,98828.32
2018-11-29T06:44:30.409Z,98822.50
2018-11-29T06:46:58.737Z,98818.66
2018-11-29T06:49:27.088Z,98819.14
2018-11-29T06:51:55.762Z,98809.95
2018-11-29T06:54:24.054Z,98805.25
2018-11-29T06:56:52.655Z,98803.43
2018-11-29T06:59:21.017Z,98805.91
2018-11-29T07:01:49.679Z,98807.52
2018-11-29T07:04:18.061Z,98798.79
2018-11-29T07:06:46.686Z,98795.99
2018-11-29T07:09:15.086Z,98786.60
2018-11-29T07:11:43.426Z,98787.34
2018-11-29T07:14:11.736Z,98791.61
2018-11-29T07:16:40.086Z,98787.56
2018-11-29T07:19:08.908Z,98788.34
2018-11-29T07:21:49.306Z,98796.46
2018-11-29T07:24:17.944Z,98800.34
2018-11-29T07:26:46.340Z,98809.09
2018-11-29T07:29:16.980Z,98806.93
2018-11-29T07:31:43.636Z,98806.27
2018-11-29T07:34:12.265Z,98804.69
2018-11-29T07:36:40.864Z,98800.79
2018-11-29T07:39:10.004Z,98798.95
2018-11-29T07:41:39.460Z,98794.69
2018-11-29T07:44:09.394Z,98795.96
2018-11-29T07:46:37.803Z,98799.00
2018-11-29T07:49:06.321Z,98791.13
2018-11-29T07:51:34.694Z,98784.91
2018-11-29T07:54:03.599Z,98779.23
2018-11-29T07:56:32.233Z,98782.80
2018-11-29T07:59:00.892Z,98780.25
2018-11-29T08:01:29.579Z,98774.37
2018-11-29T08:03:58.148Z,98771.20
2018-11-29T08:06:26.540Z,98771.30
2018-11-29T08:08:55.023Z,98772.19
2018-11-29T08:11:23.462Z,98775.08
2018-11-29T08:13:52.441Z,98770.98
2018-11-29T08:16:20.821Z,98764.11
2018-11-29T08:18:49.208Z,98768.56
2018-11-29T08:21:17.543Z,98769.08
2018-11-29T08:23:46.420Z,98767.56
2018-11-29T08:26:14.750Z,98771.31
2018-11-29T08:28:43.277Z,98760.97
2018-11-29T08:31:11.997Z,98755.52
2018-11-29T08:33:40.349Z,98760.41
2018-11-29T08:36:08.861Z,98748.00
2018-11-29T08:38:37.251Z,98751.91
2018-11-29T08:41:06.203Z,98745.21
2018-11-29T08:43:34.577Z,98740.69
2018-11-29T08:46:03.173Z,98732.33
2018-11-29T08:48:32.572Z,98733.23
2018-11-29T08:51:01.029Z,98728.20
2018-11-29T08:53:29.572Z,98731.30
2018-11-29T08:55:57.889Z,98721.55
2018-11-29T08:58:26.294Z,98719.08
2018-11-29T09:00:54.933Z,98719.81
2018-11-29T09:03:23.491Z,98719.28
2018-11-29T09:05:52.027Z,98721.91
2018-11-29T09:08:20.448Z,98719.02
2018-11-29T09:10:48.770Z,98711.91
2018-11-29T09:13:17.122Z,98709.52
2018-11-29T09:15:45.481Z,98712.73
2018-11-29T09:18:13.854Z,98705.30
2018-11-29T09:20:42.520Z,98706.67
2018-11-29T09:23:10.943Z,98703.33
2018-11-29T09:25:40.143Z,98699.67
2018-11-29T09:28:10.089Z,98706.25
2018-11-29T09:30:38.646Z,98712.04
2018-11-29T09:33:07.175Z,98707.63
2018-11-29T09:35:36.016Z,98714.81
2018-11-29T09:38:04.552Z,98715.88
2018-11-29T09:40:33.388Z,98720.97
2018-11-29T09:43:03.597Z,98727.34
2018-11-29T09:45:32.397Z,98726.67
2018-11-29T09:48:01.017Z,98726.45
2018-11-29T09:50:29.633Z,98729.01
2018-11-29T09:52:58.000Z,98732.85
2018-11-29T09:55:26.339Z,98726.89
2018-11-29T09:57:55.006Z,98721.03
2018-11-29T10:00:28.224Z,98712.33
2018-11-29T10:03:27.286Z,98696.91
2018-11-29T10:05:56.744Z,98686.09
2018-11-29T10:08:26.557Z,98669.45
2018-11-29T10:10:55.243Z,98663.92
2018-11-29T10:13:25.207Z,98658.79
2018-11-29T10:15:54.711Z,98654.19
2018-11-29T10:18:24.251Z,98653.07
2018-11-29T10:20:52.922Z,98643.73
2018-11-29T10:23:21.587Z,98645.28
2018-11-29T10:25:50.066Z,98638.41
2018-11-29T10:28:18.823Z,98635.02
2018-11-29T10:30:56.488Z,98630.31
2018-11-29T10:33:26.151Z,98627.34
2018-11-29T10:35:58.907Z,98630.23
2018-11-29T10:38:25.023Z,98618.67
2018-11-29T10:40:53.265Z,98621.05
2018-11-29T10:43:21.730Z,98630.32
2018-11-29T10:45:49.949Z,98630.06
2018-11-29T10:48:22.570Z,98619.71
2018-11-29T10:50:51.660Z,98610.64
2018-11-29T10:53:20.183Z,98616.58
2018-11-29T10:55:48.513Z,98608.50
2018-11-29T10:58:17.549Z,98603.75
2018-11-29T11:00:51.624Z,98605.05
2018-11-29T11:03:20.838Z,98597.56
2018-11-29T11:05:51.855Z,98596.50
2018-11-29T11:08:20.989Z,98595.00
2018-11-29T11:10:51.745Z,98596.16
2018-11-29T11:13:22.298Z,98591.61
2018-11-29T11:15:52.686Z,98588.69
2018-11-29T11:18:23.383Z,98586.98
2018-11-29T11:20:53.395Z,98589.06
2018-11-29T11:23:22.459Z,98595.03
2018-11-29T11:25:51.174Z,98590.45
2018-11-29T11:28:20.890Z,98593.28
2018-11-29T11:30:49.382Z,98593.75
2018-11-29T11:33:19.677Z,98592.66
2018-11-29T11:35:48.983Z,98587.64
2018-11-29T11:38:19.386Z,98593.41
2018-11-29T11:40:47.803Z,98587.31
2018-11-29T11:43:17.062Z,98581.42
2018-11-29T11:45:45.390Z,98567.34
2018-11-29T11:48:13.994Z,98565.72
2018-11-29T11:50:43.855Z,98563.91
2018-11-29T11:53:13.195Z,98574.15
2018-11-29T11:55:41.981Z,98581.23
2018-11-29T11:58:10.370Z,98587.98
2018-11-29T12:00:39.668Z,98585.28
2018-11-29T12:03:14.160Z,98575.66
2018-11-29T12:05:42.771Z,98563.44
2018-11-29T12:08:11.076Z,98566.72
2018-11-29T12:10:42.310Z,98556.41
2018-11-29T12:13:17.361Z,98547.38
2018-11-29T12:15:46.090Z,98541.09
2018-11-29T12:18:14.415Z,98539.65
2018-11-29T12:20:43.173Z,98550.44
2018-11-29T12:23:11.813Z,98540.48
2018-11-29T12:25:40.911Z,98534.05
2018-11-29T12:28:09.864Z,98533.06
2018-11-29T12:30:44.371Z,98531.14
2018-11-29T12:33:12.994Z,98529.93
2018-11-29T12:35:42.377Z,98530.89
2018-11-29T12:38:11.579Z,98524.67
2018-11-29T12:40:40.968Z,98514.12
2018-11-29T12:43:09.710Z,98510.69
2018-11-29T12:45:38.375Z,98505.54
2018-11-29T12:48:06.849Z,98497.39
2018-11-29T12:50:38.221Z,98485.75
2018-11-29T12:53:07.310Z,98478.30
2018-11-29T12:55:43.496Z,98479.09
2018-11-29T12:58:12.108Z,98479.77
2018-11-29T13:00:40.428Z,98480.11
2018-11-29T13:03:09.891Z,98481.09
2018-11-29T13:05:38.369Z,98480.23
2018-11-29T13:08:08.763Z,98484.83
2018-11-29T13:10:37.478Z,98475.01
2018-11-29T13:13:06.834Z,98469.31
2018-11-29T13:15:35.210Z,98468.34
2018-11-29T13:18:08.155Z,98469.97
2018-11-29T13:20:36.678Z,98462.56
2018-11-29T13:23:06.206Z,98456.78
2018-11-29T13:25:34.994Z,98461.21
2018-11-29T13:28:03.444Z,98458.09
2018-11-29T13:30:31.760Z,98463.41
2018-11-29T13:33:00.415Z,98459.82
2018-11-29T13:35:33.676Z,98455.43
2018-11-29T13:38:12.438Z,98455.32
2018-11-29T13:40:43.543Z,98451.16
2018-11-29T13:43:11.876Z,98448.31
2018-11-29T13:45:40.226Z,98440.28
2018-11-29T13:48:10.149Z,98438.02
2018-11-29T13:50:39.677Z,98444.39
2018-11-29T13:53:08.275Z,98441.38
2018-11-29T13:55:36.761Z,98439.02
2018-11-29T13:58:05.698Z,98433.56
2018-11-29T14:00:34.079Z,98426.88
2018-11-29T14:03:09.109Z,98425.42
2018-11-29T14:05:37.418Z,98423.35
2018-11-29T14:08:07.230Z,98433.22
2018-11-29T14:10:35.903Z,98437.95
2018-11-29T14:13:06.226Z,98432.19
2018-11-29T14:15:34.841Z,98430.91
2018-11-29T14:18:03.650Z,98439.45
2018-11-29T14:20:35.418Z,98436.71
2018-11-29T14:23:00.324Z,98437.63
2018-11-29T14:25:28.944Z,98439.66
2018-11-29T14:27:57.905Z,98438.45
2018-11-29T14:30:27.687Z,98432.48
2018-11-29T14:32:58.692Z,98426.89
2018-11-29T14:35:27.042Z,98431.95
2018-11-29T14:37:55.682Z,98428.95
2018-11-29T14:40:25.911Z,98424.36
2018-11-29T14:42:54.854Z,98419.92
2018-11-29T14:45:26.469Z,98419.78
2018-11-29T14:47:55.582Z,98414.11
2018-11-29T14:50:33.315Z,98412.77
2018-11-29T14:53:01.974Z,98402.44
2018-11-29T14:55:30.552Z,98398.72
2018-11-29T14:57:59.529Z,98402.84
2018-11-29T15:00:27.897Z,98403.61
2018-11-29T15:02:57.991Z,98394.36
2018-11-29T15:05:29.141Z,98395.36
2018-11-29T15:07:57.472Z,98388.08
2018-11-29T15:10:26.397Z,98386.56
2018-11-29T15:12:54.712Z,98388.78
2018-11-29T15:15:23.023Z,98378.37
2018-11-29T15:17:53.407Z,98373.53
2018-11-29T15:20:27.329Z,98362.58
2018-11-29T15:22:55.626Z,98351.99
2018-11-29T15:25:24.247Z,98341.20
2018-11-29T15:27:52.829Z,98341.92
2018-11-29T15:30:22.770Z,98337.27
2018-11-29T15:32:51.291Z,98330.23
2018-11-29T15:35:20.212Z,98321.64
2018-11-29T15:37:48.534Z,98326.10
2018-11-29T15:40:17.702Z,98338.99
2018-11-29T15:42:46.736Z,98355.31
2018-11-29T15:45:22.677Z,98363.13
2018-11-29T15:47:51.169Z,98358.45
2018-11-29T15:50:19.564Z,98358.00
2018-11-29T15:52:49.222Z,98353.59
2018-11-29T15:55:19.936Z,98369.87
2018-11-29T15:57:50.102Z,98388.22
2018-11-29T16:00:26.408Z,98394.94
2018-11-29T16:02:57.709Z,98397.30
2018-11-29T16:05:26.429Z,98389.05
2018-11-29T16:07:55.050Z,98380.53
2018-11-29T16:10:25.411Z,98393.80
2018-11-29T16:12:54.256Z,98402.52
2018-11-29T16:15:23.947Z,98386.98
2018-11-29T16:17:53.596Z,98384.42
2018-11-29T16:20:30.272Z,98384.23
2018-11-29T16:22:58.741Z,98369.69
2018-11-29T16:25:27.523Z,98363.99
2018-11-29T16:30:37.346Z,98363.73
2018-11-29T16:33:10.810Z,98358.97
2018-11-29T16:35:40.510Z,98358.98
2018-11-29T16:38:08.768Z,98357.05
2018-11-29T16:40:37.828Z,98352.11
2018-11-29T16:43:06.960Z,98356.75
2018-11-29T16:45:36.157Z,98358.34
2018-11-29T16:48:05.432Z,98358.87
2018-11-29T16:50:34.061Z,98357.58
2018-11-29T16:53:02.768Z,98361.73
2018-11-29T16:55:31.537Z,98357.88
2018-11-29T16:58:03.522Z,98354.23
2018-11-29T17:00:32.074Z,98347.89
2018-11-29T17:03:00.765Z,98344.31
2018-11-29T17:05:29.483Z,98343.67
2018-11-29T17:07:58.786Z,98339.64
2018-11-29T17:10:28.277Z,98343.48
2018-11-29T17:13:11.335Z,98342.45
2018-11-29T17:15:39.777Z,98343.55
2018-11-29T17:18:08.197Z,98350.14
2018-11-29T17:20:36.754Z,98346.39
2018-11-29T17:23:06.954Z,98351.24
2018-11-29T17:25:35.598Z,98348.84
2018-11-29T17:28:05.118Z,98348.05
2018-11-29T17:30:35.244Z,98344.70
2018-11-29T17:33:04.806Z,98342.43
2018-11-29T17:35:33.489Z,98350.64
2018-11-29T17:38:02.927Z,98343.11
2018-11-29T17:40:31.963Z,98334.49
2018-11-29T17:43:00.805Z,98331.91
2018-11-29T17:45:30.193Z,98342.62
2018-11-29T17:48:06.158Z,98346.69
2018-11-29T17:50:38.628Z,98339.91
2018-11-29T17:53:08.006Z,98331.23
2018-11-29T17:55:36.408Z,98332.41
2018-11-29T17:58:07.556Z,98323.28
2018-11-29T18:00:36.962Z,98321.56
2018-11-29T18:03:07.196Z,98320.69
2018-11-29T18:05:37.633Z,98324.49
2018-11-29T18:08:06.383Z,98324.05
2018-11-29T18:10:38.053Z,98336.66
2018-11-29T18:13:17.705Z,98341.77
2018-11-29T18:15:46.076Z,98339.39
2018-11-29T18:18:14.774Z,98349.22
2018-11-29T18:20:43.540Z,98347.00
2018-11-29T18:23:13.138Z,98338.57
2018-11-29T18:25:41.677Z,98341.34
2018-11-29T18:28:11.046Z,98340.80
2018-11-29T18:30:41.004Z,98338.25
2018-11-29T18:33:09.446Z,98338.97
2018-11-29T18:35:38.175Z,98326.49
2018-11-29T18:38:07.287Z,98329.19
2018-11-29T18:40:36.309Z,98343.77
2018-11-29T18:43:07.389Z,98326.17
2018-11-29T18:45:36.125Z,98330.63
2018-11-29T18:48:04.758Z,98331.48
2018-11-29T18:50:33.659Z,98337.69
2018-11-29T18:53:02.124Z,98338.31
2018-11-29T18:55:31.284Z,98337.58
2018-11-29T18:57:59.499Z,98337.53
2018-11-29T19:00:30.182Z,98337.57
2018-11-29T19:02:58.550Z,98330.97
2018-11-29T19:05:27.828Z,98335.88
2018-11-29T19:07:57.425Z,98338.02
2018-11-29T19:10:25.809Z,98343.52
2018-11-29T19:13:11.048Z,98337.45
2018-11-29T19:15:39.425Z,98336.56
2018-11-29T19:18:10.817Z,98329.31
2018-11-29T19:20:37.512Z,98333.91
2018-11-29T19:23:06.741Z,98327.66
2018-11-29T19:25:36.378Z,98334.45
2018-11-29T19:28:05.467Z,98339.89
2018-11-29T19:30:34.062Z,98339.28
2018-11-29T19:33:20.469Z,98332.95
2018-11-29T19:35:50.017Z,98330.05
2018-11-29T19:38:18.563Z,98329.80
2018-11-29T19:40:46.990Z,98323.92
2018-11-29T19:43:15.476Z,98322.20
2018-11-29T19:45:43.829Z,98324.02
2018-11-29T19:48:12.975Z,98332.35
2018-11-29T19:50:41.659Z,98333.05
2018-11-29T19:53:15.082Z,98326.28
2018-11-29T19:55:43.734Z,98320.70
2018-11-29T19:58:12.021Z,98326.19
2018-11-29T20:00:40.445Z,98323.70
2018-11-29T20:03:08.843Z,98325.80
2018-11-29T20:05:37.326Z,98328.97
2018-11-29T20:08:06.738Z,98333.50
2018-11-29T20:10:36.109Z,98333.66
2018-11-29T20:13:07.769Z,98337.88
2018-11-29T20:15:39.003Z,98332.67
2018-11-29T20:18:12.360Z,98327.66
2018-11-29T20:20:40.700Z,98330.38
2018-11-29T20:23:10.615Z,98324.24
2018-11-29T20:25:40.860Z,98326.16
2018-11-29T20:28:09.317Z,98329.77
2018-11-29T20:30:37.834Z,98328.25
2018-11-29T20:33:06.352Z,98331.41
2018-11-29T20:35:35.029Z,98337.06
2018-11-29T20:38:03.361Z,98345.53
2018-11-29T20:40:34.425Z,98347.78
2018-11-29T20:43:03.238Z,98344.94
2018-11-29T20:45:35.051Z,98335.77
2018-11-29T20:48:37.989Z,98343.12
2018-11-29T20:51:06.402Z,98341.56
2018-11-29T20:53:37.979Z,98346.95
2018-11-29T20:56:09.270Z,98342.67
2018-11-29T20:58:37.609Z,98349.44
2018-11-29T21:01:07.493Z,98344.23
2018-11-29T21:03:36.549Z,98343.81
2018-11-29T21:06:09.098Z,98349.04
2018-11-29T21:08:38.011Z,98352.05
2018-11-29T21:11:07.082Z,98350.03
2018-11-29T21:13:36.059Z,98351.16
2018-11-29T21:16:04.548Z,98353.41
2018-11-29T21:18:33.051Z,98352.88
2018-11-29T21:21:01.598Z,98358.03
2018-11-29T21:23:30.015Z,98361.56
2018-11-29T21:25:59.130Z,98356.02
2018-11-29T21:28:27.821Z,98345.13
2018-11-29T21:33:35.256Z,98345.69
2018-11-29T21:36:03.753Z,98336.46
2018-11-29T21:38:32.121Z,98334.78
2018-11-29T21:41:03.896Z,98336.08
2018-11-29T21:43:32.379Z,98329.10
2018-11-29T21:46:00.788Z,98328.80
2018-11-29T21:48:29.678Z,98328.91
2018-11-29T21:50:58.440Z,98327.64
2018-11-29T21:53:26.879Z,98329.56
2018-11-29T21:55:55.339Z,98326.13
2018-11-29T21:58:24.456Z,98325.24
2018-11-29T22:00:53.332Z,98321.35
2018-11-29T22:03:21.721Z,98320.73
2018-11-29T22:05:50.426Z,98320.80
2018-11-29T22:08:19.219Z,98321.00
2018-11-29T22:10:47.577Z,98328.05
2018-11-29T22:13:16.109Z,98326.16
2018-11-29T22:15:44.718Z,98326.03
2018-11-29T22:18:21.087Z,98319.66
2018-11-29T22:20:54.259Z,98317.53
2018-11-29T22:23:22.681Z,98313.41
2018-11-29T22:25:51.944Z,98315.10
2018-11-29T22:28:20.305Z,98321.47
2018-11-29T22:30:48.641Z,98322.16
2018-11-29T22:33:18.179Z,98328.77
2018-11-29T22:35:46.693Z,98325.45
2018-11-29T22:38:15.304Z,98328.20
2018-11-29T22:40:43.684Z,98332.80
2018-11-29T22:43:14.941Z,98323.98
2018-11-29T22:45:43.621Z,98315.69
2018-11-29T22:48:12.239Z,98310.83
2018-11-29T22:50:40.684Z,98311.88
2018-11-29T22:53:09.345Z,98312.20
2018-11-29T22:55:37.980Z,98309.71
2018-11-29T22:58:06.601Z,98312.05
2018-11-29T23:00:43.418Z,98311.52
2018-11-29T23:03:13.042Z,98310.59
2018-11-29T23:05:41.856Z,98308.73
2018-11-29T23:08:10.214Z,98302.27
2018-11-29T23:10:38.848Z,98301.55
2018-11-29T23:13:07.313Z,98303.22
2018-11-29T23:15:36.102Z,98301.67
2018-11-29T23:18:04.534Z,98301.67
2018-11-29T23:20:33.131Z,98297.55
2018-11-29T23:23:01.717Z,98305.70
2018-11-29T23:25:30.066Z,98307.36
2018-11-29T23:27:58.405Z,98303.59
2018-11-29T23:30:26.793Z,98297.80
2018-11-29T23:32:55.162Z,98284.68
2018-11-29T23:35:23.506Z,98288.36
2018-11-29T23:37:51.897Z,98288.01
2018-11-29T23:40:20.546Z,98299.81
2018-11-29T23:42:49.762Z,98309.08
2018-11-29T23:45:18.989Z,98309.47
2018-11-29T23:47:49.822Z,98310.55
